sensor_id;sensor_type;location;lat;lon;timestamp;temperature;humidity
6174;DHT22;3120;48.796;9.796;2022-08-21T00:01:27;15.50;99.90
6174;DHT22;3120;48.796;9.796;2022-08-21T00:03:54;16.40;99.90
6174;DHT22;3120;48.796;9.796;2022-08-21T00:06:20;15.50;99.90
6174;DHT22;3120;48.796;9.796;2022-08-21T00:08:46;15.60;99.90
6174;DHT22;3120;48.796;9.796;2022-08-21T00:11:12;15.60;99.90
6174;DHT22;3120;48.796;9.796;2022-08-21T00:13:38;15.60;99.90
6174;DHT22;3120;48.796;9.796;2022-08-21T00:16:04;15.60;99.90
6174;DHT22;3120;48.796;9.796;2022-08-21T00:18:30;15.50;99.90
6174;DHT22;3120;48.796;9.796;2022-08-21T00:20:55;15.30;99.90
6174;DHT22;3120;48.796;9.796;2022-08-21T00:23:21;15.40;99.90
6174;DHT22;3120;48.796;9.796;2022-08-21T00:25:47;15.40;99.90
6174;DHT22;3120;48.796;9.796;2022-08-21T00:28:13;15.30;99.90
6174;DHT22;3120;48.796;9.796;2022-08-21T00:30:39;15.30;99.90
6174;DHT22;3120;48.796;9.796;2022-08-21T00:33:05;15.30;99.90
6174;DHT22;3120;48.796;9.796;2022-08-21T00:35:35;15.30;99.90
6174;DHT22;3120;48.796;9.796;2022-08-21T00:38:02;15.40;99.90
6174;DHT22;3120;48.796;9.796;2022-08-21T00:40:38;15.40;99.90
6174;DHT22;3120;48.796;9.796;2022-08-21T00:43:05;15.40;99.90
6174;DHT22;3120;48.796;9.796;2022-08-21T00:45:31;15.40;99.90
6174;DHT22;3120;48.796;9.796;2022-08-21T00:47:57;16.10;99.90
6174;DHT22;3120;48.796;9.796;2022-08-21T00:50:27;15.30;99.90
6174;DHT22;3120;48.796;9.796;2022-08-21T00:52:54;15.30;99.90
6174;DHT22;3120;48.796;9.796;2022-08-21T00:55:21;15.20;99.90
6174;DHT22;3120;48.796;9.796;2022-08-21T00:57:50;15.10;99.90
6174;DHT22;3120;48.796;9.796;2022-08-21T01:00:19;15.10;99.90
6174;DHT22;3120;48.796;9.796;2022-08-21T01:02:46;15.00;99.90
6174;DHT22;3120;48.796;9.796;2022-08-21T01:05:13;15.20;99.90
6174;DHT22;3120;48.796;9.796;2022-08-21T01:07:40;14.90;99.90
6174;DHT22;3120;48.796;9.796;2022-08-21T01:10:06;15.00;99.90
6174;DHT22;3120;48.796;9.796;2022-08-21T01:12:34;15.00;99.90
6174;DHT22;3120;48.796;9.796;2022-08-21T01:15:02;14.90;99.90
6174;DHT22;3120;48.796;9.796;2022-08-21T01:17:28;15.00;99.90
6174;DHT22;3120;48.796;9.796;2022-08-21T01:19:59;15.00;99.90
6174;DHT22;3120;48.796;9.796;2022-08-21T01:22:25;15.00;99.90
6174;DHT22;3120;48.796;9.796;2022-08-21T01:24:51;15.00;99.90
6174;DHT22;3120;48.796;9.796;2022-08-21T01:27:17;15.40;99.90
6174;DHT22;3120;48.796;9.796;2022-08-21T01:29:52;14.80;99.90
6174;DHT22;3120;48.796;9.796;2022-08-21T01:32:20;14.80;99.90
6174;DHT22;3120;48.796;9.796;2022-08-21T01:34:48;14.80;99.90
6174;DHT22;3120;48.796;9.796;2022-08-21T01:37:15;14.80;99.90
6174;DHT22;3120;48.796;9.796;2022-08-21T01:39:41;14.70;99.90
6174;DHT22;3120;48.796;9.796;2022-08-21T01:42:07;14.60;99.90
6174;DHT22;3120;48.796;9.796;2022-08-21T01:44:33;14.60;99.90
6174;DHT22;3120;48.796;9.796;2022-08-21T01:47:01;14.70;99.90
6174;DHT22;3120;48.796;9.796;2022-08-21T01:49:27;14.70;99.90
6174;DHT22;3120;48.796;9.796;2022-08-21T01:51:52;14.60;99.90
6174;DHT22;3120;48.796;9.796;2022-08-21T01:54:19;14.70;99.90
6174;DHT22;3120;48.796;9.796;2022-08-21T01:56:46;14.60;99.90
6174;DHT22;3120;48.796;9.796;2022-08-21T01:59:13;14.60;99.90
6174;DHT22;3120;48.796;9.796;2022-08-21T02:01:38;14.50;99.90
6174;DHT22;3120;48.796;9.796;2022-08-21T02:04:09;14.50;99.90
6174;DHT22;3120;48.796;9.796;2022-08-21T02:06:36;14.40;99.90
6174;DHT22;3120;48.796;9.796;2022-08-21T02:09:06;14.40;99.90
6174;DHT22;3120;48.796;9.796;2022-08-21T02:11:34;14.70;99.90
6174;DHT22;3120;48.796;9.796;2022-08-21T02:14:01;14.30;99.90
6174;DHT22;3120;48.796;9.796;2022-08-21T02:16:27;14.20;99.90
6174;DHT22;3120;48.796;9.796;2022-08-21T02:18:52;14.30;99.90
6174;DHT22;3120;48.796;9.796;2022-08-21T02:21:18;14.30;99.90
6174;DHT22;3120;48.796;9.796;2022-08-21T02:23:44;14.20;99.90
6174;DHT22;3120;48.796;9.796;2022-08-21T02:26:10;14.20;99.90
6174;DHT22;3120;48.796;9.796;2022-08-21T02:28:36;14.20;99.90
6174;DHT22;3120;48.796;9.796;2022-08-21T02:31:04;14.40;99.90
6174;DHT22;3120;48.796;9.796;2022-08-21T02:33:30;14.10;99.90
6174;DHT22;3120;48.796;9.796;2022-08-21T02:35:56;14.20;99.90
6174;DHT22;3120;48.796;9.796;2022-08-21T02:38:26;14.10;99.90
6174;DHT22;3120;48.796;9.796;2022-08-21T02:40:53;14.20;99.90
6174;DHT22;3120;48.796;9.796;2022-08-21T02:43:20;14.20;99.90
6174;DHT22;3120;48.796;9.796;2022-08-21T02:45:47;14.10;99.90
6174;DHT22;3120;48.796;9.796;2022-08-21T02:48:16;14.00;99.90
6174;DHT22;3120;48.796;9.796;2022-08-21T02:50:46;14.00;99.90
6174;DHT22;3120;48.796;9.796;2022-08-21T02:53:13;14.00;99.90
6174;DHT22;3120;48.796;9.796;2022-08-21T02:55:43;14.00;99.90
6174;DHT22;3120;48.796;9.796;2022-08-21T02:58:09;13.90;99.90
6174;DHT22;3120;48.796;9.796;2022-08-21T03:00:35;14.00;99.90
6174;DHT22;3120;48.796;9.796;2022-08-21T03:03:02;14.00;99.90
6174;DHT22;3120;48.796;9.796;2022-08-21T03:05:29;14.10;99.90
6174;DHT22;3120;48.796;9.796;2022-08-21T03:07:57;14.00;99.90
6174;DHT22;3120;48.796;9.796;2022-08-21T03:10:23;14.40;99.90
6174;DHT22;3120;48.796;9.796;2022-08-21T03:12:50;13.90;99.90
6174;DHT22;3120;48.796;9.796;2022-08-21T03:15:20;14.80;99.90
6174;DHT22;3120;48.796;9.796;2022-08-21T03:17:46;13.90;99.90
6174;DHT22;3120;48.796;9.796;2022-08-21T03:20:14;14.50;99.90
6174;DHT22;3120;48.796;9.796;2022-08-21T03:22:41;14.70;99.90
6174;DHT22;3120;48.796;9.796;2022-08-21T03:25:07;13.70;99.90
6174;DHT22;3120;48.796;9.796;2022-08-21T03:27:34;13.80;99.90
6174;DHT22;3120;48.796;9.796;2022-08-21T03:30:01;13.80;99.90
6174;DHT22;3120;48.796;9.796;2022-08-21T03:32:27;13.90;99.90
6174;DHT22;3120;48.796;9.796;2022-08-21T03:34:52;13.70;99.90
6174;DHT22;3120;48.796;9.796;2022-08-21T03:37:18;13.70;99.90
6174;DHT22;3120;48.796;9.796;2022-08-21T03:39:44;13.80;99.90
6174;DHT22;3120;48.796;9.796;2022-08-21T03:42:10;13.80;99.90
6174;DHT22;3120;48.796;9.796;2022-08-21T03:44:37;13.80;99.90
6174;DHT22;3120;48.796;9.796;2022-08-21T03:47:03;13.70;99.90
6174;DHT22;3120;48.796;9.796;2022-08-21T03:49:28;13.70;99.90
6174;DHT22;3120;48.796;9.796;2022-08-21T03:51:54;13.70;99.90
6174;DHT22;3120;48.796;9.796;2022-08-21T03:54:20;13.70;99.90
6174;DHT22;3120;48.796;9.796;2022-08-21T03:56:46;13.80;99.90
6174;DHT22;3120;48.796;9.796;2022-08-21T03:59:12;13.70;99.90
6174;DHT22;3120;48.796;9.796;2022-08-21T04:01:38;13.70;99.90
6174;DHT22;3120;48.796;9.796;2022-08-21T04:04:05;13.70;99.90
6174;DHT22;3120;48.796;9.796;2022-08-21T04:06:31;13.70;99.90
6174;DHT22;3120;48.796;9.796;2022-08-21T04:08:57;13.60;99.90
6174;DHT22;3120;48.796;9.796;2022-08-21T04:11:22;13.60;99.90
6174;DHT22;3120;48.796;9.796;2022-08-21T04:13:48;13.70;99.90
6174;DHT22;3120;48.796;9.796;2022-08-21T04:16:14;13.70;99.90
6174;DHT22;3120;48.796;9.796;2022-08-21T04:18:40;13.50;99.90
6174;DHT22;3120;48.796;9.796;2022-08-21T04:21:08;14.30;99.90
6174;DHT22;3120;48.796;9.796;2022-08-21T04:23:36;13.50;99.90
6174;DHT22;3120;48.796;9.796;2022-08-21T04:26:02;13.50;99.90
6174;DHT22;3120;48.796;9.796;2022-08-21T04:28:27;13.50;99.90
6174;DHT22;3120;48.796;9.796;2022-08-21T04:30:53;13.40;99.90
6174;DHT22;3120;48.796;9.796;2022-08-21T04:33:20;13.40;99.90
6174;DHT22;3120;48.796;9.796;2022-08-21T04:35:47;13.40;99.90
6174;DHT22;3120;48.796;9.796;2022-08-21T04:38:13;13.50;99.90
6174;DHT22;3120;48.796;9.796;2022-08-21T04:40:39;13.40;99.90
6174;DHT22;3120;48.796;9.796;2022-08-21T04:43:07;13.40;99.90
6174;DHT22;3120;48.796;9.796;2022-08-21T04:45:45;13.40;99.90
6174;DHT22;3120;48.796;9.796;2022-08-21T04:48:16;13.50;99.90
6174;DHT22;3120;48.796;9.796;2022-08-21T04:50:47;13.40;99.90
6174;DHT22;3120;48.796;9.796;2022-08-21T04:53:22;13.60;99.90
6174;DHT22;3120;48.796;9.796;2022-08-21T04:55:50;13.30;99.90
6174;DHT22;3120;48.796;9.796;2022-08-21T04:58:19;13.40;99.90
6174;DHT22;3120;48.796;9.796;2022-08-21T05:00:46;13.40;99.90
6174;DHT22;3120;48.796;9.796;2022-08-21T05:03:12;13.30;99.90
6174;DHT22;3120;48.796;9.796;2022-08-21T05:05:40;13.40;99.90
6174;DHT22;3120;48.796;9.796;2022-08-21T05:08:07;13.40;99.90
6174;DHT22;3120;48.796;9.796;2022-08-21T05:10:34;13.40;99.90
6174;DHT22;3120;48.796;9.796;2022-08-21T05:13:01;13.50;99.90
6174;DHT22;3120;48.796;9.796;2022-08-21T05:15:27;13.40;99.90
6174;DHT22;3120;48.796;9.796;2022-08-21T05:17:52;13.50;99.90
6174;DHT22;3120;48.796;9.796;2022-08-21T05:20:19;13.40;99.90
6174;DHT22;3120;48.796;9.796;2022-08-21T05:22:45;13.40;99.90
6174;DHT22;3120;48.796;9.796;2022-08-21T05:25:10;14.30;99.90
6174;DHT22;3120;48.796;9.796;2022-08-21T05:27:37;13.40;99.90
6174;DHT22;3120;48.796;9.796;2022-08-21T05:32:31;13.50;99.90
6174;DHT22;3120;48.796;9.796;2022-08-21T05:34:57;14.20;99.90
6174;DHT22;3120;48.796;9.796;2022-08-21T05:37:22;13.50;99.90
6174;DHT22;3120;48.796;9.796;2022-08-21T05:39:48;13.50;99.90
6174;DHT22;3120;48.796;9.796;2022-08-21T05:42:14;13.60;99.90
6174;DHT22;3120;48.796;9.796;2022-08-21T05:44:39;13.60;99.90
6174;DHT22;3120;48.796;9.796;2022-08-21T05:47:06;13.70;99.90
6174;DHT22;3120;48.796;9.796;2022-08-21T05:49:32;13.70;99.90
6174;DHT22;3120;48.796;9.796;2022-08-21T05:51:58;13.90;99.90
6174;DHT22;3120;48.796;9.796;2022-08-21T05:54:24;13.70;99.90
6174;DHT22;3120;48.796;9.796;2022-08-21T05:56:49;14.10;99.90
6174;DHT22;3120;48.796;9.796;2022-08-21T05:59:15;14.10;99.90
6174;DHT22;3120;48.796;9.796;2022-08-21T06:01:41;14.00;99.90
6174;DHT22;3120;48.796;9.796;2022-08-21T06:04:06;14.10;99.90
6174;DHT22;3120;48.796;9.796;2022-08-21T06:06:33;14.40;99.90
6174;DHT22;3120;48.796;9.796;2022-08-21T06:08:59;14.60;99.90
6174;DHT22;3120;48.796;9.796;2022-08-21T06:11:24;15.80;99.90
6174;DHT22;3120;48.796;9.796;2022-08-21T06:13:50;16.50;99.90
6174;DHT22;3120;48.796;9.796;2022-08-21T06:16:16;14.80;99.90
6174;DHT22;3120;48.796;9.796;2022-08-21T06:18:44;14.90;99.90
6174;DHT22;3120;48.796;9.796;2022-08-21T06:21:10;15.00;99.90
6174;DHT22;3120;48.796;9.796;2022-08-21T06:23:45;15.00;99.90
6174;DHT22;3120;48.796;9.796;2022-08-21T06:26:12;15.10;99.90
6174;DHT22;3120;48.796;9.796;2022-08-21T06:28:38;15.30;99.90
6174;DHT22;3120;48.796;9.796;2022-08-21T06:31:18;17.60;99.90
6174;DHT22;3120;48.796;9.796;2022-08-21T06:33:45;15.40;99.90
6174;DHT22;3120;48.796;9.796;2022-08-21T06:36:10;15.40;99.90
6174;DHT22;3120;48.796;9.796;2022-08-21T06:38:37;15.50;99.90
6174;DHT22;3120;48.796;9.796;2022-08-21T06:41:03;15.60;99.90
6174;DHT22;3120;48.796;9.796;2022-08-21T06:43:29;15.80;99.90
6174;DHT22;3120;48.796;9.796;2022-08-21T06:45:55;16.00;99.90
6174;DHT22;3120;48.796;9.796;2022-08-21T06:48:20;16.20;99.90
6174;DHT22;3120;48.796;9.796;2022-08-21T06:50:47;16.40;99.90
6174;DHT22;3120;48.796;9.796;2022-08-21T06:53:15;16.60;99.90
6174;DHT22;3120;48.796;9.796;2022-08-21T06:55:41;16.70;99.90
6174;DHT22;3120;48.796;9.796;2022-08-21T06:58:08;16.80;99.90
6174;DHT22;3120;48.796;9.796;2022-08-21T07:00:35;17.00;99.90
6174;DHT22;3120;48.796;9.796;2022-08-21T07:03:04;17.30;99.90
6174;DHT22;3120;48.796;9.796;2022-08-21T07:05:30;17.70;99.90
6174;DHT22;3120;48.796;9.796;2022-08-21T07:07:56;18.40;99.90
6174;DHT22;3120;48.796;9.796;2022-08-21T07:10:23;19.40;94.10
6174;DHT22;3120;48.796;9.796;2022-08-21T07:12:50;20.50;1.00
6174;DHT22;3120;48.796;9.796;2022-08-21T07:15:16;21.30;99.90
6174;DHT22;3120;48.796;9.796;2022-08-21T07:17:41;21.80;1.00
6174;DHT22;3120;48.796;9.796;2022-08-21T07:20:08;22.60;99.90
6174;DHT22;3120;48.796;9.796;2022-08-21T07:22:35;23.00;1.00
6174;DHT22;3120;48.796;9.796;2022-08-21T07:25:02;23.00;99.90
6174;DHT22;3120;48.796;9.796;2022-08-21T07:27:29;23.50;1.00
6174;DHT22;3120;48.796;9.796;2022-08-21T07:29:54;24.00;1.00
6174;DHT22;3120;48.796;9.796;2022-08-21T07:32:20;24.10;99.90
6174;DHT22;3120;48.796;9.796;2022-08-21T07:34:45;23.90;16.00
6174;DHT22;3120;48.796;9.796;2022-08-21T07:37:11;24.00;1.00
6174;DHT22;3120;48.796;9.796;2022-08-21T07:39:37;24.60;99.90
6174;DHT22;3120;48.796;9.796;2022-08-21T07:42:02;25.10;1.00
6174;DHT22;3120;48.796;9.796;2022-08-21T07:44:28;25.50;99.90
6174;DHT22;3120;48.796;9.796;2022-08-21T07:46:54;24.80;1.00
6174;DHT22;3120;48.796;9.796;2022-08-21T07:49:20;24.70;1.00
6174;DHT22;3120;48.796;9.796;2022-08-21T07:51:45;25.00;99.90
6174;DHT22;3120;48.796;9.796;2022-08-21T07:54:11;24.70;1.00
6174;DHT22;3120;48.796;9.796;2022-08-21T07:56:37;24.80;1.00
6174;DHT22;3120;48.796;9.796;2022-08-21T07:59:03;24.80;99.90
6174;DHT22;3120;48.796;9.796;2022-08-21T08:01:29;25.20;99.90
6174;DHT22;3120;48.796;9.796;2022-08-21T08:03:55;24.80;1.00
6174;DHT22;3120;48.796;9.796;2022-08-21T08:06:21;24.80;99.90
6174;DHT22;3120;48.796;9.796;2022-08-21T08:08:48;25.10;99.90
6174;DHT22;3120;48.796;9.796;2022-08-21T08:11:14;25.00;99.90
6174;DHT22;3120;48.796;9.796;2022-08-21T08:13:45;25.00;99.90
6174;DHT22;3120;48.796;9.796;2022-08-21T08:16:11;24.90;99.90
6174;DHT22;3120;48.796;9.796;2022-08-21T08:18:37;25.00;99.90
6174;DHT22;3120;48.796;9.796;2022-08-21T08:21:04;24.50;99.90
6174;DHT22;3120;48.796;9.796;2022-08-21T08:23:30;24.10;99.90
6174;DHT22;3120;48.796;9.796;2022-08-21T08:25:57;24.20;1.00
6174;DHT22;3120;48.796;9.796;2022-08-21T08:28:23;24.30;99.90
6174;DHT22;3120;48.796;9.796;2022-08-21T08:30:49;24.50;1.00
6174;DHT22;3120;48.796;9.796;2022-08-21T08:33:15;24.30;99.90
6174;DHT22;3120;48.796;9.796;2022-08-21T08:35:45;23.90;99.90
6174;DHT22;3120;48.796;9.796;2022-08-21T08:38:10;24.20;99.90
6174;DHT22;3120;48.796;9.796;2022-08-21T08:43:18;24.00;1.00
6174;DHT22;3120;48.796;9.796;2022-08-21T08:45:50;24.10;99.90
6174;DHT22;3120;48.796;9.796;2022-08-21T08:48:47;23.90;1.00
6174;DHT22;3120;48.796;9.796;2022-08-21T08:51:39;23.70;99.90
6174;DHT22;3120;48.796;9.796;2022-08-21T08:54:17;23.90;1.00
6174;DHT22;3120;48.796;9.796;2022-08-21T08:56:44;24.00;1.00
6174;DHT22;3120;48.796;9.796;2022-08-21T08:59:25;24.00;1.00
6174;DHT22;3120;48.796;9.796;2022-08-21T09:01:52;23.60;1.00
6174;DHT22;3120;48.796;9.796;2022-08-21T09:04:23;23.60;99.90
6174;DHT22;3120;48.796;9.796;2022-08-21T09:12:17;24.50;1.00
6174;DHT22;3120;48.796;9.796;2022-08-21T09:17:52;24.70;1.00
6174;DHT22;3120;48.796;9.796;2022-08-21T09:23:22;24.70;99.90
6174;DHT22;3120;48.796;9.796;2022-08-21T09:26:08;24.70;99.90
6174;DHT22;3120;48.796;9.796;2022-08-21T09:28:37;24.60;99.90
6174;DHT22;3120;48.796;9.796;2022-08-21T09:33:40;24.60;1.00
6174;DHT22;3120;48.796;9.796;2022-08-21T09:36:06;24.60;99.90
6174;DHT22;3120;48.796;9.796;2022-08-21T09:38:34;25.00;99.90
6174;DHT22;3120;48.796;9.796;2022-08-21T09:41:09;25.20;99.90
6174;DHT22;3120;48.796;9.796;2022-08-21T09:43:36;25.40;99.90
6174;DHT22;3120;48.796;9.796;2022-08-21T09:46:20;25.50;99.90
6174;DHT22;3120;48.796;9.796;2022-08-21T09:48:49;25.60;99.90
6174;DHT22;3120;48.796;9.796;2022-08-21T09:51:24;25.60;24.50
6174;DHT22;3120;48.796;9.796;2022-08-21T09:56:26;25.40;7.20
6174;DHT22;3120;48.796;9.796;2022-08-21T09:59:19;25.50;95.40
6174;DHT22;3120;48.796;9.796;2022-08-21T10:01:49;25.50;13.10
6174;DHT22;3120;48.796;9.796;2022-08-21T10:04:20;25.70;62.10
6174;DHT22;3120;48.796;9.796;2022-08-21T10:06:47;25.50;96.60
6174;DHT22;3120;48.796;9.796;2022-08-21T10:09:15;25.50;54.90
6174;DHT22;3120;48.796;9.796;2022-08-21T10:11:57;25.60;1.00
6174;DHT22;3120;48.796;9.796;2022-08-21T10:17:27;25.80;1.00
6174;DHT22;3120;48.796;9.796;2022-08-21T10:20:18;25.90;1.00
6174;DHT22;3120;48.796;9.796;2022-08-21T10:23:07;26.10;1.00
6174;DHT22;3120;48.796;9.796;2022-08-21T10:25:54;26.20;1.00
6174;DHT22;3120;48.796;9.796;2022-08-21T10:28:35;26.30;1.00
6174;DHT22;3120;48.796;9.796;2022-08-21T10:43:35;26.40;1.00
6174;DHT22;3120;48.796;9.796;2022-08-21T10:46:11;26.60;1.00
6174;DHT22;3120;48.796;9.796;2022-08-21T10:48:47;26.50;1.00
6174;DHT22;3120;48.796;9.796;2022-08-21T10:51:39;26.50;1.00
6174;DHT22;3120;48.796;9.796;2022-08-21T10:54:16;26.50;1.00
6174;DHT22;3120;48.796;9.796;2022-08-21T10:56:47;26.20;1.00
6174;DHT22;3120;48.796;9.796;2022-08-21T10:59:27;26.30;1.00
6174;DHT22;3120;48.796;9.796;2022-08-21T11:04:57;26.50;1.00
6174;DHT22;3120;48.796;9.796;2022-08-21T11:07:26;26.70;1.00
6174;DHT22;3120;48.796;9.796;2022-08-21T11:09:56;26.70;1.00
6174;DHT22;3120;48.796;9.796;2022-08-21T11:12:35;26.80;1.00
6174;DHT22;3120;48.796;9.796;2022-08-21T11:15:24;26.70;1.00
6174;DHT22;3120;48.796;9.796;2022-08-21T11:23:05;26.20;1.00
6174;DHT22;3120;48.796;9.796;2022-08-21T11:25:36;26.30;1.00
6174;DHT22;3120;48.796;9.796;2022-08-21T11:28:10;26.00;1.00
6174;DHT22;3120;48.796;9.796;2022-08-21T11:34:11;26.20;1.00
6174;DHT22;3120;48.796;9.796;2022-08-21T11:37:25;26.50;1.00
6174;DHT22;3120;48.796;9.796;2022-08-21T11:39:57;26.50;1.00
6174;DHT22;3120;48.796;9.796;2022-08-21T11:45:13;27.00;1.00
6174;DHT22;3120;48.796;9.796;2022-08-21T11:48:12;27.20;1.00
6174;DHT22;3120;48.796;9.796;2022-08-21T11:50:43;27.30;1.00
6174;DHT22;3120;48.796;9.796;2022-08-21T11:55:52;27.00;1.00
6174;DHT22;3120;48.796;9.796;2022-08-21T11:58:45;26.80;1.00
6174;DHT22;3120;48.796;9.796;2022-08-21T12:01:19;26.60;1.00
6174;DHT22;3120;48.796;9.796;2022-08-21T12:04:00;26.70;1.00
6174;DHT22;3120;48.796;9.796;2022-08-21T12:06:31;26.70;1.00
6174;DHT22;3120;48.796;9.796;2022-08-21T12:09:00;26.90;1.00
6174;DHT22;3120;48.796;9.796;2022-08-21T12:11:26;26.80;1.00
6174;DHT22;3120;48.796;9.796;2022-08-21T12:13:56;26.90;1.00
6174;DHT22;3120;48.796;9.796;2022-08-21T12:16:31;26.80;1.00
6174;DHT22;3120;48.796;9.796;2022-08-21T12:19:41;26.50;1.00
6174;DHT22;3120;48.796;9.796;2022-08-21T12:27:29;26.20;1.00
6174;DHT22;3120;48.796;9.796;2022-08-21T12:30:02;26.10;1.00
6174;DHT22;3120;48.796;9.796;2022-08-21T12:32:42;25.80;1.00
6174;DHT22;3120;48.796;9.796;2022-08-21T12:35:21;25.60;1.00
6174;DHT22;3120;48.796;9.796;2022-08-21T12:37:56;25.30;1.00
6174;DHT22;3120;48.796;9.796;2022-08-21T12:40:31;25.10;1.00
6174;DHT22;3120;48.796;9.796;2022-08-21T12:43:03;25.20;1.00
6174;DHT22;3120;48.796;9.796;2022-08-21T12:45:40;25.40;1.00
6174;DHT22;3120;48.796;9.796;2022-08-21T12:50:52;25.80;1.00
6174;DHT22;3120;48.796;9.796;2022-08-21T12:53:30;26.00;1.00
6174;DHT22;3120;48.796;9.796;2022-08-21T12:56:00;26.10;1.00
6174;DHT22;3120;48.796;9.796;2022-08-21T12:58:29;26.20;1.00
6174;DHT22;3120;48.796;9.796;2022-08-21T13:01:03;25.90;1.00
6174;DHT22;3120;48.796;9.796;2022-08-21T13:03:30;25.60;1.00
6174;DHT22;3120;48.796;9.796;2022-08-21T13:05:58;25.40;1.00
6174;DHT22;3120;48.796;9.796;2022-08-21T13:08:26;25.20;1.00
6174;DHT22;3120;48.796;9.796;2022-08-21T13:11:00;25.00;1.00
6174;DHT22;3120;48.796;9.796;2022-08-21T13:13:28;25.20;1.00
6174;DHT22;3120;48.796;9.796;2022-08-21T13:16:03;25.30;1.00
6174;DHT22;3120;48.796;9.796;2022-08-21T13:18:31;25.50;1.00
6174;DHT22;3120;48.796;9.796;2022-08-21T13:21:11;25.60;1.00
6174;DHT22;3120;48.796;9.796;2022-08-21T13:23:37;25.70;1.00
6174;DHT22;3120;48.796;9.796;2022-08-21T13:26:13;25.90;1.00
6174;DHT22;3120;48.796;9.796;2022-08-21T13:28:39;26.00;1.00
6174;DHT22;3120;48.796;9.796;2022-08-21T13:31:07;26.10;1.00
6174;DHT22;3120;48.796;9.796;2022-08-21T13:33:36;26.20;1.00
6174;DHT22;3120;48.796;9.796;2022-08-21T13:36:09;26.20;1.00
6174;DHT22;3120;48.796;9.796;2022-08-21T13:38:36;26.10;1.00
6174;DHT22;3120;48.796;9.796;2022-08-21T13:41:23;26.10;1.00
6174;DHT22;3120;48.796;9.796;2022-08-21T13:43:56;26.10;1.00
6174;DHT22;3120;48.796;9.796;2022-08-21T13:46:24;26.00;1.00
6174;DHT22;3120;48.796;9.796;2022-08-21T13:48:52;26.00;1.00
6174;DHT22;3120;48.796;9.796;2022-08-21T13:51:18;26.00;1.00
6174;DHT22;3120;48.796;9.796;2022-08-21T13:53:47;26.10;1.00
6174;DHT22;3120;48.796;9.796;2022-08-21T13:56:29;26.20;1.00
6174;DHT22;3120;48.796;9.796;2022-08-21T13:58:56;26.20;1.00
6174;DHT22;3120;48.796;9.796;2022-08-21T14:01:28;26.20;1.00
6174;DHT22;3120;48.796;9.796;2022-08-21T14:04:07;26.20;1.00
6174;DHT22;3120;48.796;9.796;2022-08-21T14:06:40;26.10;1.00
6174;DHT22;3120;48.796;9.796;2022-08-21T14:09:12;26.20;1.00
6174;DHT22;3120;48.796;9.796;2022-08-21T14:11:39;26.20;1.00
6174;DHT22;3120;48.796;9.796;2022-08-21T14:14:28;26.90;1.00
6174;DHT22;3120;48.796;9.796;2022-08-21T14:17:01;26.20;1.00
6174;DHT22;3120;48.796;9.796;2022-08-21T14:22:43;26.30;1.00
6174;DHT22;3120;48.796;9.796;2022-08-21T14:25:13;26.30;1.00
6174;DHT22;3120;48.796;9.796;2022-08-21T14:28:19;26.40;1.00
6174;DHT22;3120;48.796;9.796;2022-08-21T14:30:49;26.40;1.00
6174;DHT22;3120;48.796;9.796;2022-08-21T14:33:26;28.50;1.00
6174;DHT22;3120;48.796;9.796;2022-08-21T14:35:53;26.20;1.00
6174;DHT22;3120;48.796;9.796;2022-08-21T14:38:22;26.20;1.00
6174;DHT22;3120;48.796;9.796;2022-08-21T14:40:58;26.20;1.00
6174;DHT22;3120;48.796;9.796;2022-08-21T14:43:27;26.20;1.00
6174;DHT22;3120;48.796;9.796;2022-08-21T14:45:53;26.20;1.00
6174;DHT22;3120;48.796;9.796;2022-08-21T14:48:19;26.30;1.00
6174;DHT22;3120;48.796;9.796;2022-08-21T14:50:45;26.30;1.00
6174;DHT22;3120;48.796;9.796;2022-08-21T14:53:10;26.50;1.00
6174;DHT22;3120;48.796;9.796;2022-08-21T14:55:37;26.50;1.00
6174;DHT22;3120;48.796;9.796;2022-08-21T14:58:22;26.70;1.00
6174;DHT22;3120;48.796;9.796;2022-08-21T15:00:50;26.70;1.00
6174;DHT22;3120;48.796;9.796;2022-08-21T15:03:17;26.60;1.00
6174;DHT22;3120;48.796;9.796;2022-08-21T15:05:43;26.60;1.00
6174;DHT22;3120;48.796;9.796;2022-08-21T15:08:08;26.70;1.00
6174;DHT22;3120;48.796;9.796;2022-08-21T15:10:35;26.70;1.00
6174;DHT22;3120;48.796;9.796;2022-08-21T15:13:02;26.70;1.00
6174;DHT22;3120;48.796;9.796;2022-08-21T15:15:34;26.70;1.00
6174;DHT22;3120;48.796;9.796;2022-08-21T15:18:00;26.70;1.00
6174;DHT22;3120;48.796;9.796;2022-08-21T15:20:26;26.70;1.00
6174;DHT22;3120;48.796;9.796;2022-08-21T15:22:55;26.70;1.00
6174;DHT22;3120;48.796;9.796;2022-08-21T15:25:21;26.70;1.00
6174;DHT22;3120;48.796;9.796;2022-08-21T15:27:47;26.70;1.00
6174;DHT22;3120;48.796;9.796;2022-08-21T15:30:12;26.70;1.00
6174;DHT22;3120;48.796;9.796;2022-08-21T15:32:38;26.70;1.00
6174;DHT22;3120;48.796;9.796;2022-08-21T15:35:05;26.70;1.00
6174;DHT22;3120;48.796;9.796;2022-08-21T15:37:30;26.60;1.00
6174;DHT22;3120;48.796;9.796;2022-08-21T15:39:56;26.60;1.00
6174;DHT22;3120;48.796;9.796;2022-08-21T15:42:22;26.60;1.00
6174;DHT22;3120;48.796;9.796;2022-08-21T15:44:48;26.60;1.00
6174;DHT22;3120;48.796;9.796;2022-08-21T15:47:17;26.50;1.00
6174;DHT22;3120;48.796;9.796;2022-08-21T15:49:43;26.50;1.00
6174;DHT22;3120;48.796;9.796;2022-08-21T15:52:19;26.50;1.00
6174;DHT22;3120;48.796;9.796;2022-08-21T15:54:45;26.50;1.00
6174;DHT22;3120;48.796;9.796;2022-08-21T15:57:13;26.50;1.00
6174;DHT22;3120;48.796;9.796;2022-08-21T15:59:43;26.50;1.00
6174;DHT22;3120;48.796;9.796;2022-08-21T16:02:34;26.50;1.00
6174;DHT22;3120;48.796;9.796;2022-08-21T16:05:02;26.40;1.00
6174;DHT22;3120;48.796;9.796;2022-08-21T16:07:28;26.20;1.00
6174;DHT22;3120;48.796;9.796;2022-08-21T16:09:53;26.10;1.00
6174;DHT22;3120;48.796;9.796;2022-08-21T16:12:28;26.00;1.00
6174;DHT22;3120;48.796;9.796;2022-08-21T16:14:56;25.90;1.00
6174;DHT22;3120;48.796;9.796;2022-08-21T16:17:33;25.80;1.00
6174;DHT22;3120;48.796;9.796;2022-08-21T16:20:02;25.80;1.00
6174;DHT22;3120;48.796;9.796;2022-08-21T16:22:28;25.70;1.00
6174;DHT22;3120;48.796;9.796;2022-08-21T16:24:54;25.80;1.00
6174;DHT22;3120;48.796;9.796;2022-08-21T16:27:19;25.60;1.00
6174;DHT22;3120;48.796;9.796;2022-08-21T16:29:46;25.60;1.00
6174;DHT22;3120;48.796;9.796;2022-08-21T16:32:12;25.60;1.00
6174;DHT22;3120;48.796;9.796;2022-08-21T16:34:43;25.50;1.00
6174;DHT22;3120;48.796;9.796;2022-08-21T16:37:10;25.50;1.00
6174;DHT22;3120;48.796;9.796;2022-08-21T16:39:35;25.50;1.00
6174;DHT22;3120;48.796;9.796;2022-08-21T16:42:02;25.40;1.00
6174;DHT22;3120;48.796;9.796;2022-08-21T16:44:27;25.40;1.00
6174;DHT22;3120;48.796;9.796;2022-08-21T16:46:53;25.40;1.00
6174;DHT22;3120;48.796;9.796;2022-08-21T16:49:19;25.40;1.00
6174;DHT22;3120;48.796;9.796;2022-08-21T16:51:44;25.50;1.00
6174;DHT22;3120;48.796;9.796;2022-08-21T16:54:11;25.50;1.00
6174;DHT22;3120;48.796;9.796;2022-08-21T16:56:36;25.50;1.00
6174;DHT22;3120;48.796;9.796;2022-08-21T16:59:03;25.40;1.00
6174;DHT22;3120;48.796;9.796;2022-08-21T17:01:31;25.30;1.00
6174;DHT22;3120;48.796;9.796;2022-08-21T17:03:57;25.30;1.00
6174;DHT22;3120;48.796;9.796;2022-08-21T17:06:24;25.20;1.00
6174;DHT22;3120;48.796;9.796;2022-08-21T17:08:50;25.20;1.00
6174;DHT22;3120;48.796;9.796;2022-08-21T17:11:32;25.20;1.00
6174;DHT22;3120;48.796;9.796;2022-08-21T17:14:00;25.10;1.00
6174;DHT22;3120;48.796;9.796;2022-08-21T17:16:26;25.00;1.00
6174;DHT22;3120;48.796;9.796;2022-08-21T17:18:52;25.00;1.00
6174;DHT22;3120;48.796;9.796;2022-08-21T17:21:18;24.90;1.00
6174;DHT22;3120;48.796;9.796;2022-08-21T17:23:45;24.80;1.00
6174;DHT22;3120;48.796;9.796;2022-08-21T17:26:12;24.80;1.00
6174;DHT22;3120;48.796;9.796;2022-08-21T17:28:38;24.80;1.00